createdAt,value
2023-02-19T00:01:07.390Z,70.53
2023-02-19T00:03:34.358Z,70.66
2023-02-19T00:06:02.004Z,71.16
2023-02-19T00:08:29.951Z,69.65
2023-02-19T00:11:00.776Z,70.08
2023-02-19T00:13:27.587Z,70.04
2023-02-19T00:15:55.813Z,69.26
2023-02-19T00:18:23.370Z,70.39
2023-02-19T00:20:50.171Z,70.93
2023-02-19T00:23:16.911Z,69.19
2023-02-19T00:25:43.748Z,71.17
2023-02-19T00:28:10.482Z,72.03
2023-02-19T00:30:37.327Z,73.36
2023-02-19T00:33:05.469Z,73.28
2023-02-19T00:35:33.924Z,76.02
2023-02-19T00:38:00.756Z,76.24
2023-02-19T00:40:27.614Z,74.55
2023-02-19T00:42:54.352Z,76.33
2023-02-19T00:45:21.203Z,77.27
2023-02-19T00:47:48.008Z,76.45
2023-02-19T00:50:16.309Z,76.71
2023-02-19T00:52:43.040Z,77.95
2023-02-19T00:55:09.870Z,78.54
2023-02-19T00:57:36.720Z,76.61
2023-02-19T01:00:04.293Z,76.45
2023-02-19T01:02:31.078Z,76.17
2023-02-19T01:04:57.858Z,75.83
2023-02-19T01:07:26.019Z,74.85
2023-02-19T01:09:52.834Z,76.93
2023-02-19T01:12:19.551Z,76.80
2023-02-19T01:14:46.295Z,75.23
2023-02-19T01:17:13.081Z,77.51
2023-02-19T01:19:39.784Z,76.64
2023-02-19T01:22:06.513Z,73.47
2023-02-19T01:24:35.756Z,75.16
2023-02-19T01:27:02.592Z,77.04
2023-02-19T01:29:29.438Z,76.05
2023-02-19T01:31:56.282Z,74.77
2023-02-19T01:34:23.261Z,73.95
2023-02-19T01:36:50.020Z,74.84
2023-02-19T01:39:16.738Z,77.48
2023-02-19T01:41:45.260Z,78.11
2023-02-19T01:44:45.124Z,78.64
2023-02-19T01:47:12.408Z,78.39
2023-02-19T01:49:44.773Z,75.68
2023-02-19T01:52:14.863Z,73.98
2023-02-19T01:54:44.108Z,78.42
2023-02-19T01:57:17.064Z,79.46
2023-02-19T01:59:44.317Z,78.96
2023-02-19T02:02:11.768Z,76.80
2023-02-19T02:04:38.865Z,77.45
2023-02-19T02:07:06.789Z,76.56
2023-02-19T02:09:36.352Z,76.88
2023-02-19T02:12:03.384Z,78.81
2023-02-19T02:14:36.417Z,80.37
2023-02-19T02:17:14.771Z,79.28
2023-02-19T02:20:02.061Z,79.04
2023-02-19T02:22:32.662Z,79.19
2023-02-19T02:25:36.605Z,79.68
2023-02-19T02:28:21.562Z,83.13
2023-02-19T02:30:53.796Z,80.58
2023-02-19T02:33:28.450Z,81.21
2023-02-19T02:35:59.306Z,83.17
2023-02-19T02:38:29.499Z,81.58
2023-02-19T02:40:57.225Z,82.90
2023-02-19T02:43:24.422Z,82.15
2023-02-19T02:45:52.919Z,81.56
2023-02-19T02:48:30.198Z,81.57
2023-02-19T02:51:02.480Z,83.03
2023-02-19T02:53:33.788Z,83.33
2023-02-19T02:56:01.670Z,83.28
2023-02-19T02:58:29.516Z,78.73
2023-02-19T03:01:01.317Z,80.55
2023-02-19T03:03:31.119Z,81.45
2023-02-19T03:06:03.114Z,80.62
2023-02-19T03:08:36.778Z,83.20
2023-02-19T03:11:07.284Z,83.04
2023-02-19T03:13:37.740Z,81.15
2023-02-19T03:16:10.815Z,83.84
2023-02-19T03:18:41.338Z,81.38
2023-02-19T03:21:10.007Z,77.90
2023-02-19T03:23:38.071Z,79.22
2023-02-19T03:26:05.620Z,80.03
2023-02-19T03:28:35.292Z,79.33
2023-02-19T03:31:02.351Z,78.54
2023-02-19T03:33:30.719Z,79.51
2023-02-19T03:36:00.768Z,79.46
2023-02-19T03:38:36.686Z,80.59
2023-02-19T03:41:10.625Z,80.02
2023-02-19T03:43:41.583Z,80.75
2023-02-19T03:46:13.299Z,80.42
2023-02-19T03:48:48.630Z,78.60
2023-02-19T03:51:26.785Z,81.61
2023-02-19T03:53:59.589Z,80.49
2023-02-19T03:56:32.110Z,82.89
2023-02-19T03:59:03.992Z,82.64
2023-02-19T04:01:39.390Z,82.70
2023-02-19T04:04:13.441Z,82.75
2023-02-19T04:06:42.690Z,82.21
2023-02-19T04:09:12.932Z,79.39
2023-02-19T04:11:40.084Z,80.43
2023-02-19T04:14:11.346Z,80.85
2023-02-19T04:16:41.967Z,81.35
2023-02-19T04:19:12.426Z,79.68
2023-02-19T04:21:40.651Z,80.65
2023-02-19T04:24:12.705Z,80.95
2023-02-19T04:26:41.205Z,82.04
2023-02-19T04:29:08.080Z,80.92
2023-02-19T04:31:36.329Z,81.37
2023-02-19T04:34:03.873Z,81.05
2023-02-19T04:36:32.621Z,82.24
2023-02-19T04:38:59.811Z,79.72
2023-02-19T04:41:26.561Z,80.97
2023-02-19T04:43:53.560Z,83.37
2023-02-19T04:46:20.445Z,83.89
2023-02-19T04:48:47.350Z,80.81
2023-02-19T04:51:14.258Z,80.36
2023-02-19T04:53:43.585Z,81.96
2023-02-19T04:56:12.617Z,82.25
2023-02-19T04:58:40.163Z,81.90
2023-02-19T05:01:07.574Z,82.31
2023-02-19T05:03:34.367Z,82.10
2023-02-19T05:06:02.857Z,81.72
2023-02-19T05:08:29.724Z,82.28
2023-02-19T05:10:59.220Z,82.06
2023-02-19T05:13:26.512Z,81.92
2023-02-19T05:15:58.107Z,83.92
2023-02-19T05:18:25.053Z,83.34
2023-02-19T05:20:52.326Z,82.72
2023-02-19T05:23:20.123Z,83.01
2023-02-19T05:25:47.849Z,80.81
2023-02-19T05:28:16.292Z,81.78
2023-02-19T05:30:43.270Z,82.18
2023-02-19T05:33:10.116Z,80.19
2023-02-19T05:35:41.226Z,81.04
2023-02-19T05:38:08.246Z,81.09
2023-02-19T05:40:35.371Z,80.08
2023-02-19T05:43:02.217Z,80.86
2023-02-19T05:45:30.594Z,83.16
2023-02-19T05:47:57.323Z,83.77
2023-02-19T05:50:24.301Z,82.86
2023-02-19T05:52:51.098Z,83.26
2023-02-19T05:55:18.139Z,83.24
2023-02-19T05:57:46.629Z,81.33
2023-02-19T06:00:15.242Z,82.32
2023-02-19T06:02:43.612Z,82.78
2023-02-19T06:05:11.152Z,83.93
2023-02-19T06:07:38.256Z,86.32
2023-02-19T06:10:05.877Z,84.06
2023-02-19T06:12:32.912Z,85.00
2023-02-19T06:14:59.764Z,84.83
2023-02-19T06:17:26.550Z,85.37
2023-02-19T06:19:54.686Z,86.09
2023-02-19T06:22:21.492Z,86.11
2023-02-19T06:24:48.461Z,86.10
2023-02-19T06:27:16.211Z,83.26
2023-02-19T06:29:42.987Z,82.84
2023-02-19T06:32:09.854Z,87.38
2023-02-19T06:34:36.842Z,84.13
2023-02-19T06:37:05.111Z,84.25
2023-02-19T06:39:31.884Z,83.66
2023-02-19T06:41:58.642Z,85.18
2023-02-19T06:44:25.756Z,84.79
2023-02-19T06:46:55.661Z,86.20
2023-02-19T06:49:23.118Z,88.12
2023-02-19T06:51:49.872Z,88.59
2023-02-19T06:54:17.986Z,89.23
2023-02-19T06:56:47.006Z,89.95
2023-02-19T06:59:15.973Z,86.34
2023-02-19T07:01:43.072Z,87.31
2023-02-19T07:04:09.999Z,87.73
2023-02-19T07:06:36.967Z,87.04
2023-02-19T07:09:05.308Z,86.94
2023-02-19T07:11:35.027Z,89.34
2023-02-19T07:14:03.355Z,87.38
2023-02-19T07:16:30.417Z,89.35
2023-02-19T07:18:57.875Z,88.24
2023-02-19T07:21:26.860Z,88.71
2023-02-19T07:23:53.905Z,89.36
2023-02-19T07:26:22.036Z,90.54
2023-02-19T07:28:51.751Z,92.32
2023-02-19T07:31:20.890Z,90.63
2023-02-19T07:33:48.062Z,88.88
2023-02-19T07:36:16.163Z,87.99
2023-02-19T07:38:43.000Z,86.06
2023-02-19T07:41:10.316Z,87.04
2023-02-19T07:43:38.797Z,87.45
2023-02-19T07:46:08.920Z,87.88
2023-02-19T07:48:36.496Z,87.89
2023-02-19T07:51:05.100Z,85.43
2023-02-19T07:53:33.351Z,87.39
2023-02-19T07:56:01.261Z,89.22
2023-02-19T07:58:28.408Z,84.97
2023-02-19T08:00:55.330Z,81.17
2023-02-19T08:03:23.600Z,84.43
2023-02-19T08:05:50.332Z,86.25
2023-02-19T08:08:17.510Z,83.34
2023-02-19T08:10:44.279Z,83.91
2023-02-19T08:13:13.039Z,85.87
2023-02-19T08:15:39.845Z,84.62
2023-02-19T08:18:07.446Z,83.33
2023-02-19T08:20:35.704Z,77.52
2023-02-19T08:23:02.510Z,82.18
2023-02-19T08:25:29.409Z,81.57
2023-02-19T08:27:56.329Z,81.21
2023-02-19T08:30:24.185Z,82.59
2023-02-19T08:32:51.066Z,80.48
2023-02-19T08:35:18.010Z,78.01
2023-02-19T08:37:46.161Z,81.17
2023-02-19T08:40:13.045Z,81.75
2023-02-19T08:42:41.043Z,81.01
2023-02-19T08:45:09.070Z,81.24
2023-02-19T08:47:36.032Z,81.29
2023-02-19T08:50:02.838Z,80.84
2023-02-19T08:52:29.568Z,79.82
2023-02-19T08:54:57.798Z,78.96
2023-02-19T08:57:25.228Z,80.11
2023-02-19T08:59:52.076Z,80.32
2023-02-19T09:02:18.973Z,81.13
2023-02-19T09:04:45.762Z,82.44
2023-02-19T09:07:12.746Z,81.92
2023-02-19T09:09:40.400Z,81.33
2023-02-19T09:12:11.034Z,79.32
2023-02-19T09:14:38.085Z,78.40
2023-02-19T09:17:07.139Z,76.22
2023-02-19T09:19:34.122Z,74.83
2023-02-19T09:22:01.253Z,74.15
2023-02-19T09:24:28.088Z,73.19
2023-02-19T09:26:55.225Z,72.29
2023-02-19T09:29:25.653Z,71.85
2023-02-19T09:31:56.649Z,69.37
2023-02-19T09:34:23.819Z,68.24
2023-02-19T09:36:50.977Z,64.94
2023-02-19T09:39:18.104Z,67.00
2023-02-19T09:41:47.820Z,62.84
2023-02-19T09:44:27.713Z,61.74
2023-02-19T09:46:55.226Z,60.73
2023-02-19T09:49:28.128Z,59.46
2023-02-19T09:51:59.099Z,56.17
2023-02-19T09:54:30.328Z,55.94
2023-02-19T09:57:00.081Z,59.80
2023-02-19T09:59:34.265Z,57.57
2023-02-19T10:02:04.206Z,57.54
2023-02-19T10:04:30.997Z,56.52
2023-02-19T10:06:59.149Z,56.63
2023-02-19T10:09:27.002Z,53.96
2023-02-19T10:11:55.434Z,53.77
2023-02-19T10:14:26.056Z,53.65
2023-02-19T10:16:54.430Z,52.65
2023-02-19T10:19:21.180Z,51.40
2023-02-19T10:21:48.086Z,51.79
2023-02-19T10:24:24.136Z,51.79
2023-02-19T10:26:51.045Z,51.89
2023-02-19T10:29:17.813Z,50.06
2023-02-19T10:31:44.702Z,49.81
2023-02-19T10:34:20.464Z,47.83
2023-02-19T10:36:49.411Z,46.65
2023-02-19T10:39:39.580Z,50.56
2023-02-19T10:42:13.329Z,50.57
2023-02-19T10:44:44.504Z,49.10
2023-02-19T10:47:18.041Z,50.84
2023-02-19T10:49:48.095Z,50.82
2023-02-19T10:52:17.901Z,49.17
2023-02-19T10:54:45.369Z,47.23
2023-02-19T10:57:28.778Z,48.01
2023-02-19T10:59:57.991Z,48.69
2023-02-19T11:02:25.665Z,49.64
2023-02-19T11:05:19.150Z,49.99
2023-02-19T11:07:48.447Z,50.17
2023-02-19T11:10:26.826Z,49.50
2023-02-19T11:12:56.482Z,48.29
2023-02-19T11:15:27.271Z,50.25
2023-02-19T11:18:00.006Z,49.58
2023-02-19T11:20:29.142Z,49.19
2023-02-19T11:22:59.612Z,49.71
2023-02-19T11:25:27.394Z,49.57
2023-02-19T11:27:57.098Z,50.12
2023-02-19T11:30:39.753Z,50.27
2023-02-19T11:33:26.535Z,51.28
2023-02-19T11:36:00.627Z,51.52
2023-02-19T11:38:27.885Z,51.24
2023-02-19T11:41:04.991Z,51.43
2023-02-19T11:43:46.889Z,52.92
2023-02-19T11:46:20.649Z,52.43
2023-02-19T11:48:53.000Z,52.73
2023-02-19T11:51:41.551Z,52.62
2023-02-19T11:54:18.824Z,51.96
2023-02-19T11:56:54.196Z,51.81
2023-02-19T11:59:31.200Z,52.04
2023-02-19T12:02:23.856Z,51.33
2023-02-19T12:05:30.574Z,50.89
2023-02-19T12:08:23.746Z,51.39
2023-02-19T12:11:03.909Z,49.47
2023-02-19T12:13:41.104Z,50.16
2023-02-19T12:16:19.870Z,49.80
2023-02-19T12:19:10.549Z,47.76
2023-02-19T12:21:57.225Z,46.76
2023-02-19T12:24:53.816Z,48.63
2023-02-19T12:27:29.185Z,48.71
2023-02-19T12:30:17.808Z,48.96
2023-02-19T12:32:58.346Z,48.32
2023-02-19T12:35:38.668Z,44.99
2023-02-19T12:38:16.969Z,45.49
2023-02-19T12:40:58.380Z,43.00
2023-02-19T12:43:25.362Z,41.18
2023-02-19T12:45:56.533Z,41.69
2023-02-19T12:48:29.662Z,40.83
2023-02-19T12:51:03.131Z,41.31
2023-02-19T12:53:40.055Z,42.77
2023-02-19T12:56:13.761Z,43.12
2023-02-19T12:58:45.006Z,42.74
2023-02-19T13:01:18.210Z,41.98
2023-02-19T13:03:50.139Z,41.87
2023-02-19T13:06:26.539Z,39.56
2023-02-19T13:09:06.261Z,40.55
2023-02-19T13:11:39.337Z,40.09
2023-02-19T13:14:16.128Z,39.86
2023-02-19T13:16:48.762Z,39.91
2023-02-19T13:19:15.682Z,39.11
2023-02-19T13:21:47.341Z,39.76
2023-02-19T13:24:21.060Z,39.96
2023-02-19T13:27:00.678Z,37.88
2023-02-19T13:29:52.131Z,39.15
2023-02-19T13:32:40.059Z,40.53
2023-02-19T13:35:23.916Z,41.61
2023-02-19T13:37:51.710Z,40.00
2023-02-19T13:40:25.438Z,40.76
2023-02-19T13:42:55.720Z,40.04
2023-02-19T13:45:27.316Z,39.41
2023-02-19T13:48:02.321Z,40.01
2023-02-19T13:50:30.768Z,40.21
2023-02-19T13:52:58.168Z,38.68
2023-02-19T13:55:52.649Z,39.63
2023-02-19T13:58:56.465Z,41.36
2023-02-19T14:01:57.244Z,41.34
2023-02-19T14:04:26.326Z,39.35
2023-02-19T14:07:26.551Z,42.67
2023-02-19T14:09:54.169Z,42.30
2023-02-19T14:12:22.746Z,40.22
2023-02-19T14:14:51.671Z,40.92
2023-02-19T14:17:28.776Z,43.99
2023-02-19T14:19:58.012Z,44.90
2023-02-19T14:23:01.676Z,44.92
2023-02-19T14:25:35.668Z,38.46
2023-02-19T14:28:06.295Z,39.62
2023-02-19T14:30:43.397Z,43.62
2023-02-19T14:33:11.453Z,45.10
2023-02-19T14:35:40.900Z,45.71
2023-02-19T14:38:16.985Z,46.10
2023-02-19T14:40:46.734Z,45.67
2023-02-19T14:43:16.157Z,45.27
2023-02-19T14:45:47.318Z,45.93
2023-02-19T14:48:19.584Z,45.45
2023-02-19T14:50:50.572Z,45.93
2023-02-19T14:53:19.555Z,46.29
2023-02-19T14:55:47.666Z,45.38
2023-02-19T14:58:22.201Z,45.46
2023-02-19T15:00:50.371Z,47.36
2023-02-19T15:03:27.413Z,47.15
2023-02-19T15:05:57.172Z,46.77
2023-02-19T15:08:31.128Z,47.07
2023-02-19T15:10:58.459Z,46.28
2023-02-19T15:13:28.139Z,46.46
2023-02-19T15:15:57.010Z,48.34
2023-02-19T15:18:25.168Z,47.88
2023-02-19T15:20:58.812Z,47.51
2023-02-19T15:23:26.208Z,47.14
2023-02-19T15:25:53.546Z,47.76
2023-02-19T15:28:28.225Z,47.34
2023-02-19T15:31:13.163Z,44.43
2023-02-19T15:33:40.356Z,46.75
2023-02-19T15:36:09.345Z,48.63
2023-02-19T15:38:36.761Z,49.01
2023-02-19T15:41:03.784Z,48.88
2023-02-19T15:43:37.472Z,48.76
2023-02-19T15:46:11.641Z,47.05
2023-02-19T15:48:40.733Z,45.59
2023-02-19T15:51:14.298Z,46.14
2023-02-19T15:53:45.474Z,47.14
2023-02-19T15:56:18.017Z,48.73
2023-02-19T15:58:50.722Z,49.40
2023-02-19T16:01:22.330Z,50.35
2023-02-19T16:03:49.271Z,50.02
2023-02-19T16:06:17.846Z,51.25
2023-02-19T16:08:46.466Z,51.13
2023-02-19T16:11:28.238Z,51.74
2023-02-19T16:14:17.271Z,52.86
2023-02-19T16:16:47.798Z,54.42
2023-02-19T16:19:20.836Z,54.08
2023-02-19T16:21:48.049Z,55.26
2023-02-19T16:24:22.045Z,56.77
2023-02-19T16:26:48.821Z,59.13
2023-02-19T16:29:20.975Z,60.77
2023-02-19T16:31:51.576Z,60.16
2023-02-19T16:34:28.392Z,61.72
2023-02-19T16:36:55.176Z,63.03
2023-02-19T16:39:23.995Z,64.60
2023-02-19T16:42:18.383Z,64.96
2023-02-19T16:44:46.614Z,66.47
2023-02-19T16:47:32.470Z,68.16
2023-02-19T16:50:01.665Z,66.28
2023-02-19T16:52:29.022Z,66.92
2023-02-19T16:54:56.124Z,67.71
2023-02-19T16:57:23.028Z,66.02
2023-02-19T16:59:49.801Z,65.94
2023-02-19T17:02:24.551Z,65.41
2023-02-19T17:04:52.828Z,66.98
2023-02-19T17:07:19.630Z,68.12
2023-02-19T17:09:46.481Z,68.55
2023-02-19T17:12:15.578Z,66.59
2023-02-19T17:14:42.395Z,63.73
2023-02-19T17:17:09.210Z,61.22
2023-02-19T17:19:35.952Z,62.17
2023-02-19T17:22:04.077Z,59.71
2023-02-19T17:24:30.884Z,60.20
2023-02-19T17:26:57.639Z,57.22
2023-02-19T17:29:24.607Z,60.96
2023-02-19T17:31:51.603Z,60.51
2023-02-19T17:34:18.408Z,59.47
2023-02-19T17:36:47.834Z,57.29
2023-02-19T17:39:16.181Z,57.19
2023-02-19T17:41:43.102Z,59.27
2023-02-19T17:44:10.564Z,59.56
2023-02-19T17:46:38.229Z,59.48
2023-02-19T17:49:05.518Z,58.87
2023-02-19T17:51:32.265Z,60.16
2023-02-19T17:53:59.010Z,60.63
2023-02-19T17:56:27.891Z,60.64
2023-02-19T17:58:55.835Z,60.42
2023-02-19T18:01:23.153Z,60.69
2023-02-19T18:03:50.587Z,59.46
2023-02-19T18:06:17.394Z,58.38
2023-02-19T18:08:49.364Z,60.16
2023-02-19T18:11:16.209Z,58.05
2023-02-19T18:13:44.516Z,61.36
2023-02-19T18:16:11.766Z,61.50
2023-02-19T18:18:38.495Z,61.47
2023-02-19T18:21:08.506Z,62.37
2023-02-19T18:23:35.327Z,62.88
2023-02-19T18:26:02.132Z,63.19
2023-02-19T18:28:28.876Z,62.18
2023-02-19T18:30:58.194Z,62.22
2023-02-19T18:33:26.331Z,63.25
2023-02-19T18:35:53.054Z,62.57
2023-02-19T18:38:20.388Z,62.61
2023-02-19T18:40:47.127Z,62.30
2023-02-19T18:43:13.950Z,60.99
2023-02-19T18:45:40.822Z,61.12
2023-02-19T18:48:08.990Z,63.79
2023-02-19T18:50:35.741Z,62.51
2023-02-19T18:53:02.469Z,61.43
2023-02-19T18:55:29.240Z,60.38
2023-02-19T18:57:55.980Z,60.87
2023-02-19T19:00:24.593Z,62.24
2023-02-19T19:02:51.640Z,61.64
2023-02-19T19:05:21.433Z,59.47
2023-02-19T19:07:48.632Z,60.01
2023-02-19T19:10:15.470Z,63.00
2023-02-19T19:12:42.228Z,56.97
2023-02-19T19:15:09.637Z,60.74
2023-02-19T19:17:36.512Z,61.76
2023-02-19T19:20:03.691Z,63.54
2023-02-19T19:22:31.820Z,62.71
2023-02-19T19:24:58.656Z,61.68
2023-02-19T19:27:25.453Z,61.11
2023-02-19T19:29:52.196Z,61.18
2023-02-19T19:32:18.942Z,62.88
2023-02-19T19:34:45.755Z,61.30
2023-02-19T19:37:12.548Z,64.35
2023-02-19T19:39:42.592Z,60.58
2023-02-19T19:42:09.409Z,61.52
2023-02-19T19:44:40.298Z,60.74
2023-02-19T19:47:09.300Z,61.79
2023-02-19T19:50:05.359Z,62.30
2023-02-19T19:52:49.287Z,63.05
2023-02-19T19:55:45.540Z,61.83
2023-02-19T19:58:43.280Z,63.24
2023-02-19T20:01:38.226Z,64.09
2023-02-19T20:04:30.314Z,64.30
2023-02-19T20:09:58.629Z,64.68
2023-02-19T20:13:11.999Z,63.52
2023-02-19T20:15:48.694Z,63.18
2023-02-19T20:18:15.831Z,63.54
2023-02-19T20:20:42.641Z,63.51
2023-02-19T20:23:09.463Z,66.34
2023-02-19T20:25:36.254Z,67.27
2023-02-19T20:28:04.824Z,66.71
2023-02-19T20:30:31.763Z,67.83
2023-02-19T20:32:58.599Z,65.71
2023-02-19T20:35:26.472Z,67.32
2023-02-19T20:37:53.396Z,68.02
2023-02-19T20:40:20.287Z,68.65
2023-02-19T20:42:47.092Z,67.73
2023-02-19T20:45:15.934Z,67.80
2023-02-19T20:47:42.872Z,67.47
2023-02-19T20:50:10.621Z,67.50
2023-02-19T20:52:37.649Z,67.54
2023-02-19T20:55:05.030Z,67.09
2023-02-19T20:57:31.823Z,64.84
2023-02-19T20:59:58.661Z,63.86
2023-02-19T21:02:27.673Z,65.40
2023-02-19T21:04:54.700Z,67.82
2023-02-19T21:07:21.446Z,68.62
2023-02-19T21:09:48.277Z,67.05
2023-02-19T21:12:15.170Z,65.30
2023-02-19T21:14:42.287Z,66.90
2023-02-19T21:17:09.036Z,67.30
2023-02-19T21:19:37.209Z,65.63
2023-02-19T21:22:04.135Z,65.29
2023-02-19T21:24:31.125Z,64.37
2023-02-19T21:26:58.786Z,66.38
2023-02-19T21:29:26.106Z,67.26
2023-02-19T21:31:54.771Z,66.02
2023-02-19T21:34:23.863Z,66.62
2023-02-19T21:36:52.501Z,66.67
2023-02-19T21:39:21.358Z,63.91
2023-02-19T21:41:49.067Z,65.67
2023-02-19T21:44:16.677Z,64.34
2023-02-19T21:46:43.472Z,64.19
2023-02-19T21:49:11.318Z,64.36
2023-02-19T21:51:40.140Z,65.02
2023-02-19T21:54:13.376Z,64.92
2023-02-19T21:56:40.154Z,65.92
2023-02-19T21:59:07.199Z,66.52
2023-02-19T22:01:36.897Z,67.53
2023-02-19T22:04:04.289Z,67.52
2023-02-19T22:06:31.661Z,68.73
2023-02-19T22:08:58.986Z,68.45
2023-02-19T22:11:27.555Z,68.85
2023-02-19T22:13:54.498Z,68.73
2023-02-19T22:16:21.409Z,68.71
2023-02-19T22:18:48.958Z,68.45
2023-02-19T22:21:16.523Z,68.62
2023-02-19T22:23:44.243Z,69.48
2023-02-19T22:26:17.752Z,70.52
2023-02-19T22:28:45.945Z,69.39
2023-02-19T22:31:12.866Z,67.96
2023-02-19T22:33:39.835Z,66.57
2023-02-19T22:36:13.803Z,66.88
2023-02-19T22:38:40.702Z,66.83
2023-02-19T22:41:07.604Z,65.57
2023-02-19T22:43:34.336Z,65.90
2023-02-19T22:46:03.171Z,65.98
2023-02-19T22:48:30.543Z,65.26
2023-02-19T22:50:57.511Z,65.18
2023-02-19T22:53:24.452Z,64.09
2023-02-19T22:55:51.349Z,65.96
2023-02-19T22:58:18.108Z,67.42
2023-02-19T23:00:44.888Z,67.99
2023-02-19T23:03:14.132Z,68.48
2023-02-19T23:05:41.020Z,69.58
2023-02-19T23:08:07.893Z,70.90
2023-02-19T23:10:34.650Z,70.54
2023-02-19T23:13:01.364Z,71.07
2023-02-19T23:15:28.130Z,70.50
2023-02-19T23:17:54.922Z,69.67
2023-02-19T23:20:23.124Z,68.10
2023-02-19T23:22:49.896Z,70.51
2023-02-19T23:25:16.852Z,70.41
2023-02-19T23:27:47.368Z,71.26
2023-02-19T23:30:15.809Z,71.76
2023-02-19T23:32:42.608Z,72.37
2023-02-19T23:35:09.365Z,68.92
2023-02-19T23:37:37.579Z,71.44
2023-02-19T23:40:05.150Z,71.10
2023-02-19T23:42:31.973Z,71.46
2023-02-19T23:44:58.845Z,72.95
2023-02-19T23:47:25.615Z,73.29
2023-02-19T23:49:52.447Z,71.67
2023-02-19T23:52:19.208Z,72.16
2023-02-19T23:54:47.324Z,71.20
2023-02-19T23:57:14.069Z,73.05
2023-02-19T23:59:41.143Z,72.36
